sensor_id;sensor_type;location;lat;lon;timestamp;pressure;altitude;pressure_sealevel;temperature;humidity
4149;BME280;2088;51.032;7.082;2022-12-07T00:01:29;48961.84;;;-142.28;100.00
4149;BME280;2088;51.032;7.082;2022-12-07T00:03:57;48954.09;;;-142.28;100.00
4149;BME280;2088;51.032;7.082;2022-12-07T00:06:30;48934.72;;;-142.28;100.00
4149;BME280;2088;51.032;7.082;2022-12-07T00:08:56;48944.41;;;-142.28;100.00
4149;BME280;2088;51.032;7.082;2022-12-07T00:11:23;48957.97;;;-142.28;100.00
4149;BME280;2088;51.032;7.082;2022-12-07T00:13:53;48969.56;;;-142.28;100.00
4149;BME280;2088;51.032;7.082;2022-12-07T00:16:22;48938.59;;;-142.28;100.00
4149;BME280;2088;51.032;7.082;2022-12-07T00:18:49;48946.34;;;-142.28;100.00
4149;BME280;2088;51.032;7.082;2022-12-07T00:21:17;48950.22;;;-142.28;100.00
4149;BME280;2088;51.032;7.082;2022-12-07T00:23:45;48957.97;;;-142.28;100.00
4149;BME280;2088;51.032;7.082;2022-12-07T00:26:15;48946.34;;;-142.28;100.00
4149;BME280;2088;51.032;7.082;2022-12-07T00:28:44;48934.72;;;-142.28;100.00
4149;BME280;2088;51.032;7.082;2022-12-07T00:31:14;48950.22;;;-142.28;100.00
4149;BME280;2088;51.032;7.082;2022-12-07T00:33:41;48942.47;;;-142.28;100.00
4149;BME280;2088;51.032;7.082;2022-12-07T00:36:11;49000.53;;;-142.28;100.00
4149;BME280;2088;51.032;7.082;2022-12-07T00:38:38;48969.56;;;-142.28;100.00
4149;BME280;2088;51.032;7.082;2022-12-07T00:41:07;48961.84;;;-142.28;100.00
4149;BME280;2088;51.032;7.082;2022-12-07T00:43:35;48977.31;;;-142.28;100.00
4149;BME280;2088;51.032;7.082;2022-12-07T00:46:02;48959.91;;;-142.28;100.00
4149;BME280;2088;51.032;7.082;2022-12-07T00:48:30;48961.84;;;-142.28;100.00
4149;BME280;2088;51.032;7.082;2022-12-07T00:50:56;48950.22;;;-142.28;100.00
4149;BME280;2088;51.032;7.082;2022-12-07T00:53:23;48946.34;;;-142.28;100.00
4149;BME280;2088;51.032;7.082;2022-12-07T00:55:50;48965.72;;;-142.28;100.00
4149;BME280;2088;51.032;7.082;2022-12-07T00:58:17;48956.03;;;-142.28;100.00
4149;BME280;2088;51.032;7.082;2022-12-07T01:00:44;48975.38;;;-142.28;100.00
4149;BME280;2088;51.032;7.082;2022-12-07T01:03:12;48954.09;;;-142.28;100.00
4149;BME280;2088;51.032;7.082;2022-12-07T01:05:49;48977.31;;;-142.28;100.00
4149;BME280;2088;51.032;7.082;2022-12-07T01:08:16;48957.97;;;-142.28;100.00
4149;BME280;2088;51.032;7.082;2022-12-07T01:10:42;48981.19;;;-142.28;100.00
4149;BME280;2088;51.032;7.082;2022-12-07T01:13:09;48967.63;;;-142.28;100.00
4149;BME280;2088;51.032;7.082;2022-12-07T01:15:38;48971.50;;;-142.28;100.00
4149;BME280;2088;51.032;7.082;2022-12-07T01:18:05;48959.91;;;-142.28;100.00
4149;BME280;2088;51.032;7.082;2022-12-07T01:20:31;48944.41;;;-142.28;100.00
4149;BME280;2088;51.032;7.082;2022-12-07T01:22:59;48994.75;;;-142.28;100.00
4149;BME280;2088;51.032;7.082;2022-12-07T01:25:26;48969.56;;;-142.28;100.00
4149;BME280;2088;51.032;7.082;2022-12-07T01:27:52;48973.44;;;-142.28;100.00
4149;BME280;2088;51.032;7.082;2022-12-07T01:30:19;48954.09;;;-142.28;100.00
4149;BME280;2088;51.032;7.082;2022-12-07T01:32:46;48975.38;;;-142.28;100.00
4149;BME280;2088;51.032;7.082;2022-12-07T01:35:12;48981.19;;;-142.28;100.00
4149;BME280;2088;51.032;7.082;2022-12-07T01:37:39;48988.94;;;-142.28;100.00
4149;BME280;2088;51.032;7.082;2022-12-07T01:40:09;49048.94;;;-142.28;100.00
4149;BME280;2088;51.032;7.082;2022-12-07T01:42:36;49004.41;;;-142.28;100.00
4149;BME280;2088;51.032;7.082;2022-12-07T01:48:11;48954.09;;;-142.28;100.00
4149;BME280;2088;51.032;7.082;2022-12-07T01:50:40;48983.13;;;-142.28;100.00
4149;BME280;2088;51.032;7.082;2022-12-07T01:53:09;48990.88;;;-142.28;100.00
4149;BME280;2088;51.032;7.082;2022-12-07T01:55:41;48988.94;;;-142.28;100.00
4149;BME280;2088;51.032;7.082;2022-12-07T01:58:09;48963.78;;;-142.28;100.00
4149;BME280;2088;51.032;7.082;2022-12-07T02:00:37;48981.19;;;-142.28;100.00
4149;BME280;2088;51.032;7.082;2022-12-07T02:03:06;48963.78;;;-142.28;100.00
4149;BME280;2088;51.032;7.082;2022-12-07T02:05:35;49008.28;;;-142.28;100.00
4149;BME280;2088;51.032;7.082;2022-12-07T02:08:03;49004.41;;;-142.28;100.00
4149;BME280;2088;51.032;7.082;2022-12-07T02:10:31;48987.00;;;-142.28;100.00
4149;BME280;2088;51.032;7.082;2022-12-07T02:13:02;48985.06;;;-142.28;100.00
4149;BME280;2088;51.032;7.082;2022-12-07T02:15:36;48988.94;;;-142.28;100.00
4149;BME280;2088;51.032;7.082;2022-12-07T02:18:09;48954.09;;;-142.28;100.00
4149;BME280;2088;51.032;7.082;2022-12-07T02:20:47;48965.72;;;-142.28;100.00
4149;BME280;2088;51.032;7.082;2022-12-07T02:26:44;49017.97;;;-142.28;100.00
4149;BME280;2088;51.032;7.082;2022-12-07T02:29:22;48987.00;;;-142.28;100.00
4149;BME280;2088;51.032;7.082;2022-12-07T02:31:55;49021.84;;;-142.28;100.00
4149;BME280;2088;51.032;7.082;2022-12-07T02:34:32;49012.16;;;-142.28;100.00
4149;BME280;2088;51.032;7.082;2022-12-07T02:37:06;49019.91;;;-142.28;100.00
4149;BME280;2088;51.032;7.082;2022-12-07T02:39:41;48983.13;;;-142.28;100.00
4149;BME280;2088;51.032;7.082;2022-12-07T02:42:14;49002.47;;;-142.28;100.00
4149;BME280;2088;51.032;7.082;2022-12-07T02:44:44;49027.66;;;-142.28;100.00
4149;BME280;2088;51.032;7.082;2022-12-07T02:47:14;49023.78;;;-142.28;100.00
4149;BME280;2088;51.032;7.082;2022-12-07T02:49:42;48988.94;;;-142.28;100.00
4149;BME280;2088;51.032;7.082;2022-12-07T02:52:08;49033.47;;;-142.28;100.00
4149;BME280;2088;51.032;7.082;2022-12-07T02:54:35;49002.47;;;-142.28;100.00
4149;BME280;2088;51.032;7.082;2022-12-07T02:57:12;49000.53;;;-142.28;100.00
4149;BME280;2088;51.032;7.082;2022-12-07T02:59:50;49008.28;;;-142.28;100.00
4149;BME280;2088;51.032;7.082;2022-12-07T03:02:31;48996.69;;;-142.28;100.00
4149;BME280;2088;51.032;7.082;2022-12-07T03:05:11;49019.91;;;-142.28;100.00
4149;BME280;2088;51.032;7.082;2022-12-07T03:07:44;49008.28;;;-142.28;100.00
4149;BME280;2088;51.032;7.082;2022-12-07T03:10:20;49006.34;;;-142.28;100.00
4149;BME280;2088;51.032;7.082;2022-12-07T03:12:55;49006.34;;;-142.28;100.00
4149;BME280;2088;51.032;7.082;2022-12-07T03:15:29;48988.94;;;-142.28;100.00
4149;BME280;2088;51.032;7.082;2022-12-07T03:17:57;49004.41;;;-142.28;100.00
4149;BME280;2088;51.032;7.082;2022-12-07T03:20:27;49023.78;;;-142.28;100.00
4149;BME280;2088;51.032;7.082;2022-12-07T03:22:56;49025.72;;;-142.28;100.00
4149;BME280;2088;51.032;7.082;2022-12-07T03:25:24;49006.34;;;-142.28;100.00
4149;BME280;2088;51.032;7.082;2022-12-07T03:27:54;48994.75;;;-142.28;100.00
4149;BME280;2088;51.032;7.082;2022-12-07T03:30:26;49014.09;;;-142.28;100.00
4149;BME280;2088;51.032;7.082;2022-12-07T03:32:59;48992.81;;;-142.28;100.00
4149;BME280;2088;51.032;7.082;2022-12-07T03:35:31;49027.66;;;-142.28;100.00
4149;BME280;2088;51.032;7.082;2022-12-07T03:38:04;48996.69;;;-142.28;100.00
4149;BME280;2088;51.032;7.082;2022-12-07T03:40:37;48981.19;;;-142.28;100.00
4149;BME280;2088;51.032;7.082;2022-12-07T03:43:06;48985.06;;;-142.28;100.00
4149;BME280;2088;51.032;7.082;2022-12-07T03:45:38;48983.13;;;-142.28;100.00
4149;BME280;2088;51.032;7.082;2022-12-07T03:48:08;49000.53;;;-142.28;100.00
4149;BME280;2088;51.032;7.082;2022-12-07T03:50:44;48992.81;;;-142.28;100.00
4149;BME280;2088;51.032;7.082;2022-12-07T03:53:17;48985.06;;;-142.28;100.00
4149;BME280;2088;51.032;7.082;2022-12-07T03:55:46;49016.03;;;-142.28;100.00
4149;BME280;2088;51.032;7.082;2022-12-07T03:58:16;48950.22;;;-142.28;100.00
4149;BME280;2088;51.032;7.082;2022-12-07T04:00:46;48977.31;;;-142.28;100.00
4149;BME280;2088;51.032;7.082;2022-12-07T04:03:13;48965.72;;;-142.28;100.00
4149;BME280;2088;51.032;7.082;2022-12-07T04:05:40;48988.94;;;-142.28;100.00
4149;BME280;2088;51.032;7.082;2022-12-07T04:08:08;48973.44;;;-142.28;100.00
4149;BME280;2088;51.032;7.082;2022-12-07T04:10:35;48996.69;;;-142.28;100.00
4149;BME280;2088;51.032;7.082;2022-12-07T04:13:01;48992.81;;;-142.28;100.00
4149;BME280;2088;51.032;7.082;2022-12-07T04:15:28;48987.00;;;-142.28;100.00
4149;BME280;2088;51.032;7.082;2022-12-07T04:17:56;48987.00;;;-142.28;100.00
4149;BME280;2088;51.032;7.082;2022-12-07T04:20:22;48973.44;;;-142.28;100.00
4149;BME280;2088;51.032;7.082;2022-12-07T04:22:49;48987.00;;;-142.28;100.00
4149;BME280;2088;51.032;7.082;2022-12-07T04:25:16;48994.75;;;-142.28;100.00
4149;BME280;2088;51.032;7.082;2022-12-07T04:27:42;49004.41;;;-142.28;100.00
4149;BME280;2088;51.032;7.082;2022-12-07T04:30:09;48992.81;;;-142.28;100.00
4149;BME280;2088;51.032;7.082;2022-12-07T04:32:36;48969.56;;;-142.28;100.00
4149;BME280;2088;51.032;7.082;2022-12-07T04:35:05;48987.00;;;-142.28;100.00
4149;BME280;2088;51.032;7.082;2022-12-07T04:37:32;48954.09;;;-142.28;100.00
4149;BME280;2088;51.032;7.082;2022-12-07T04:39:58;48985.06;;;-142.28;100.00
4149;BME280;2088;51.032;7.082;2022-12-07T04:42:25;48973.44;;;-142.28;100.00
4149;BME280;2088;51.032;7.082;2022-12-07T04:44:51;48971.50;;;-142.28;100.00
4149;BME280;2088;51.032;7.082;2022-12-07T04:47:18;48977.31;;;-142.28;100.00
4149;BME280;2088;51.032;7.082;2022-12-07T04:49:44;48948.28;;;-142.28;100.00
4149;BME280;2088;51.032;7.082;2022-12-07T04:52:12;48973.44;;;-142.28;100.00
4149;BME280;2088;51.032;7.082;2022-12-07T04:54:39;48981.19;;;-142.28;100.00
4149;BME280;2088;51.032;7.082;2022-12-07T04:57:05;48959.91;;;-142.28;100.00
4149;BME280;2088;51.032;7.082;2022-12-07T04:59:32;48973.44;;;-142.28;100.00
4149;BME280;2088;51.032;7.082;2022-12-07T05:01:58;48971.50;;;-142.28;100.00
4149;BME280;2088;51.032;7.082;2022-12-07T05:04:25;48979.25;;;-142.28;100.00
4149;BME280;2088;51.032;7.082;2022-12-07T05:06:51;48988.94;;;-142.28;100.00
4149;BME280;2088;51.032;7.082;2022-12-07T05:09:19;49014.09;;;-142.28;100.00
4149;BME280;2088;51.032;7.082;2022-12-07T05:11:46;48985.06;;;-142.28;100.00
4149;BME280;2088;51.032;7.082;2022-12-07T05:14:14;48973.44;;;-142.28;100.00
4149;BME280;2088;51.032;7.082;2022-12-07T05:16:42;48981.19;;;-142.28;100.00
4149;BME280;2088;51.032;7.082;2022-12-07T05:19:10;48981.19;;;-142.28;100.00
4149;BME280;2088;51.032;7.082;2022-12-07T05:21:37;48971.50;;;-142.28;100.00
4149;BME280;2088;51.032;7.082;2022-12-07T05:24:05;49002.47;;;-142.28;100.00
4149;BME280;2088;51.032;7.082;2022-12-07T05:26:34;48985.06;;;-142.28;100.00
4149;BME280;2088;51.032;7.082;2022-12-07T05:29:00;48985.06;;;-142.28;100.00
4149;BME280;2088;51.032;7.082;2022-12-07T05:31:27;48988.94;;;-142.28;100.00
4149;BME280;2088;51.032;7.082;2022-12-07T05:33:54;49010.22;;;-142.28;100.00
4149;BME280;2088;51.032;7.082;2022-12-07T05:36:21;48975.38;;;-142.28;100.00
4149;BME280;2088;51.032;7.082;2022-12-07T05:38:48;48954.09;;;-142.28;100.00
4149;BME280;2088;51.032;7.082;2022-12-07T05:41:16;48969.56;;;-142.28;100.00
4149;BME280;2088;51.032;7.082;2022-12-07T05:44:02;48983.13;;;-142.28;100.00
4149;BME280;2088;51.032;7.082;2022-12-07T05:46:29;48969.56;;;-142.28;100.00
4149;BME280;2088;51.032;7.082;2022-12-07T05:48:55;48983.13;;;-142.28;100.00
4149;BME280;2088;51.032;7.082;2022-12-07T05:51:22;48983.13;;;-142.28;100.00
4149;BME280;2088;51.032;7.082;2022-12-07T05:53:48;48992.81;;;-142.28;100.00
4149;BME280;2088;51.032;7.082;2022-12-07T05:56:15;48977.31;;;-142.28;100.00
4149;BME280;2088;51.032;7.082;2022-12-07T05:58:42;48946.34;;;-142.28;100.00
4149;BME280;2088;51.032;7.082;2022-12-07T06:01:28;48973.44;;;-142.28;100.00
4149;BME280;2088;51.032;7.082;2022-12-07T06:03:54;48961.84;;;-142.28;100.00
4149;BME280;2088;51.032;7.082;2022-12-07T06:06:21;48963.78;;;-142.28;100.00
4149;BME280;2088;51.032;7.082;2022-12-07T06:08:47;48938.59;;;-142.28;100.00
4149;BME280;2088;51.032;7.082;2022-12-07T06:11:14;48965.72;;;-142.28;100.00
4149;BME280;2088;51.032;7.082;2022-12-07T06:13:58;48967.63;;;-142.28;100.00
4149;BME280;2088;51.032;7.082;2022-12-07T06:16:25;48956.03;;;-142.28;100.00
4149;BME280;2088;51.032;7.082;2022-12-07T06:18:52;48934.72;;;-142.28;100.00
4149;BME280;2088;51.032;7.082;2022-12-07T06:21:19;48899.91;;;-142.28;100.00
4149;BME280;2088;51.032;7.082;2022-12-07T06:23:45;48936.66;;;-142.28;100.00
4149;BME280;2088;51.032;7.082;2022-12-07T06:26:13;48932.81;;;-142.28;100.00
4149;BME280;2088;51.032;7.082;2022-12-07T06:28:39;48927.00;;;-142.28;100.00
4149;BME280;2088;51.032;7.082;2022-12-07T06:31:07;48967.63;;;-142.28;100.00
4149;BME280;2088;51.032;7.082;2022-12-07T06:33:33;48956.03;;;-142.28;100.00
4149;BME280;2088;51.032;7.082;2022-12-07T06:36:01;48938.59;;;-142.28;100.00
4149;BME280;2088;51.032;7.082;2022-12-07T06:38:28;48946.34;;;-142.28;100.00
4149;BME280;2088;51.032;7.082;2022-12-07T06:40:54;48927.00;;;-142.28;100.00
4149;BME280;2088;51.032;7.082;2022-12-07T06:43:21;48925.06;;;-142.28;100.00
4149;BME280;2088;51.032;7.082;2022-12-07T06:45:47;48927.00;;;-142.28;100.00
4149;BME280;2088;51.032;7.082;2022-12-07T06:48:14;48938.59;;;-142.28;100.00
4149;BME280;2088;51.032;7.082;2022-12-07T06:50:40;48950.22;;;-142.28;100.00
4149;BME280;2088;51.032;7.082;2022-12-07T06:53:09;48927.00;;;-142.28;100.00
4149;BME280;2088;51.032;7.082;2022-12-07T06:55:35;48930.88;;;-142.28;100.00
4149;BME280;2088;51.032;7.082;2022-12-07T06:58:02;48936.66;;;-142.28;100.00
4149;BME280;2088;51.032;7.082;2022-12-07T07:00:29;48961.84;;;-142.28;100.00
4149;BME280;2088;51.032;7.082;2022-12-07T07:02:55;48946.34;;;-142.28;100.00
4149;BME280;2088;51.032;7.082;2022-12-07T07:05:22;48961.84;;;-142.28;100.00
4149;BME280;2088;51.032;7.082;2022-12-07T07:07:48;48971.50;;;-142.28;100.00
4149;BME280;2088;51.032;7.082;2022-12-07T07:10:16;48973.44;;;-142.28;100.00
4149;BME280;2088;51.032;7.082;2022-12-07T07:12:43;48959.91;;;-142.28;100.00
4149;BME280;2088;51.032;7.082;2022-12-07T07:15:10;48981.19;;;-142.28;100.00
4149;BME280;2088;51.032;7.082;2022-12-07T07:17:37;48971.50;;;-142.28;100.00
4149;BME280;2088;51.032;7.082;2022-12-07T07:20:04;48963.78;;;-142.28;100.00
4149;BME280;2088;51.032;7.082;2022-12-07T07:22:31;48954.09;;;-142.28;100.00
4149;BME280;2088;51.032;7.082;2022-12-07T07:24:58;48950.22;;;-142.28;100.00
4149;BME280;2088;51.032;7.082;2022-12-07T07:27:26;48950.22;;;-142.28;100.00
4149;BME280;2088;51.032;7.082;2022-12-07T07:29:52;48946.34;;;-142.28;100.00
4149;BME280;2088;51.032;7.082;2022-12-07T07:32:19;48936.66;;;-142.28;100.00
4149;BME280;2088;51.032;7.082;2022-12-07T07:34:46;48961.84;;;-142.28;100.00
4149;BME280;2088;51.032;7.082;2022-12-07T07:37:13;48957.97;;;-142.28;100.00
4149;BME280;2088;51.032;7.082;2022-12-07T07:39:39;48954.09;;;-142.28;100.00
4149;BME280;2088;51.032;7.082;2022-12-07T07:42:06;48967.63;;;-142.28;100.00
4149;BME280;2088;51.032;7.082;2022-12-07T07:44:34;48948.28;;;-142.28;100.00
4149;BME280;2088;51.032;7.082;2022-12-07T07:47:01;48963.78;;;-142.28;100.00
4149;BME280;2088;51.032;7.082;2022-12-07T07:49:27;48979.25;;;-142.28;100.00
4149;BME280;2088;51.032;7.082;2022-12-07T07:51:54;48985.06;;;-142.28;100.00
4149;BME280;2088;51.032;7.082;2022-12-07T07:54:21;48957.97;;;-142.28;100.00
4149;BME280;2088;51.032;7.082;2022-12-07T07:56:47;48961.84;;;-142.28;100.00
4149;BME280;2088;51.032;7.082;2022-12-07T07:59:14;48961.84;;;-142.28;100.00
4149;BME280;2088;51.032;7.082;2022-12-07T08:01:42;48983.13;;;-142.28;100.00
4149;BME280;2088;51.032;7.082;2022-12-07T08:04:08;48987.00;;;-142.28;100.00
4149;BME280;2088;51.032;7.082;2022-12-07T08:06:35;48950.22;;;-142.28;100.00
4149;BME280;2088;51.032;7.082;2022-12-07T08:09:01;48950.22;;;-142.28;100.00
4149;BME280;2088;51.032;7.082;2022-12-07T08:11:30;48944.41;;;-142.28;100.00
4149;BME280;2088;51.032;7.082;2022-12-07T08:13:56;48977.31;;;-142.28;100.00
4149;BME280;2088;51.032;7.082;2022-12-07T08:16:23;48934.72;;;-142.28;100.00
4149;BME280;2088;51.032;7.082;2022-12-07T08:18:51;48927.00;;;-142.28;100.00
4149;BME280;2088;51.032;7.082;2022-12-07T08:21:17;48927.00;;;-142.28;100.00
4149;BME280;2088;51.032;7.082;2022-12-07T08:23:44;48942.47;;;-142.28;100.00
4149;BME280;2088;51.032;7.082;2022-12-07T08:26:12;48957.97;;;-142.28;100.00
4149;BME280;2088;51.032;7.082;2022-12-07T08:28:38;48959.91;;;-142.28;100.00
4149;BME280;2088;51.032;7.082;2022-12-07T08:31:07;48938.59;;;-142.28;100.00
4149;BME280;2088;51.032;7.082;2022-12-07T08:33:34;48927.00;;;-142.28;100.00
4149;BME280;2088;51.032;7.082;2022-12-07T08:36:04;48973.44;;;-142.28;100.00
4149;BME280;2088;51.032;7.082;2022-12-07T08:38:31;48956.03;;;-142.28;100.00
4149;BME280;2088;51.032;7.082;2022-12-07T08:40:58;48988.94;;;-142.28;100.00
4149;BME280;2088;51.032;7.082;2022-12-07T08:43:25;48950.22;;;-142.28;100.00
4149;BME280;2088;51.032;7.082;2022-12-07T08:45:59;48952.16;;;-142.28;100.00
4149;BME280;2088;51.032;7.082;2022-12-07T08:48:30;48909.56;;;-142.28;100.00
4149;BME280;2088;51.032;7.082;2022-12-07T08:50:57;48942.47;;;-142.28;100.00
4149;BME280;2088;51.032;7.082;2022-12-07T08:53:25;48948.28;;;-142.28;100.00
4149;BME280;2088;51.032;7.082;2022-12-07T08:55:52;48927.00;;;-142.28;100.00
4149;BME280;2088;51.032;7.082;2022-12-07T08:58:18;48946.34;;;-142.28;100.00
4149;BME280;2088;51.032;7.082;2022-12-07T09:00:45;48950.22;;;-142.28;100.00
4149;BME280;2088;51.032;7.082;2022-12-07T09:03:11;48969.56;;;-142.28;100.00
4149;BME280;2088;51.032;7.082;2022-12-07T09:05:38;48930.88;;;-142.28;100.00
4149;BME280;2088;51.032;7.082;2022-12-07T09:08:05;48950.22;;;-142.28;100.00
4149;BME280;2088;51.032;7.082;2022-12-07T09:10:34;48932.81;;;-142.28;100.00
4149;BME280;2088;51.032;7.082;2022-12-07T09:13:00;48921.19;;;-142.28;100.00
4149;BME280;2088;51.032;7.082;2022-12-07T09:15:27;48917.31;;;-142.28;100.00
4149;BME280;2088;51.032;7.082;2022-12-07T09:17:53;48919.25;;;-142.28;100.00
4149;BME280;2088;51.032;7.082;2022-12-07T09:20:20;48896.03;;;-142.28;100.00
4149;BME280;2088;51.032;7.082;2022-12-07T09:22:46;48894.09;;;-142.28;100.00
4149;BME280;2088;51.032;7.082;2022-12-07T09:25:13;48907.63;;;-142.28;100.00
4149;BME280;2088;51.032;7.082;2022-12-07T09:27:41;48876.66;;;-142.28;100.00
4149;BME280;2088;51.032;7.082;2022-12-07T09:30:08;48872.78;;;-142.28;100.00
4149;BME280;2088;51.032;7.082;2022-12-07T09:32:35;48867.00;;;-142.28;100.00
4149;BME280;2088;51.032;7.082;2022-12-07T09:35:02;48845.69;;;-142.28;100.00
4149;BME280;2088;51.032;7.082;2022-12-07T09:37:28;48861.19;;;-142.28;100.00
4149;BME280;2088;51.032;7.082;2022-12-07T09:39:57;48890.22;;;-142.28;100.00
4149;BME280;2088;51.032;7.082;2022-12-07T09:42:28;48876.66;;;-142.28;100.00
4149;BME280;2088;51.032;7.082;2022-12-07T09:44:56;48886.34;;;-142.28;100.00
4149;BME280;2088;51.032;7.082;2022-12-07T09:47:24;48882.47;;;-142.28;100.00
4149;BME280;2088;51.032;7.082;2022-12-07T09:49:51;48872.78;;;-142.28;100.00
4149;BME280;2088;51.032;7.082;2022-12-07T09:52:21;48841.81;;;-142.28;100.00
4149;BME280;2088;51.032;7.082;2022-12-07T09:54:51;48836.03;;;-142.28;100.00
4149;BME280;2088;51.032;7.082;2022-12-07T09:57:25;48849.56;;;-142.28;100.00
4149;BME280;2088;51.032;7.082;2022-12-07T09:59:56;48818.59;;;-142.28;100.00
4149;BME280;2088;51.032;7.082;2022-12-07T10:02:25;48843.75;;;-142.28;100.00
4149;BME280;2088;51.032;7.082;2022-12-07T10:04:55;48832.16;;;-142.28;100.00
4149;BME280;2088;51.032;7.082;2022-12-07T10:07:24;48857.31;;;-142.28;100.00
4149;BME280;2088;51.032;7.082;2022-12-07T10:09:50;48836.03;;;-142.28;100.00
4149;BME280;2088;51.032;7.082;2022-12-07T10:12:17;48851.50;;;-142.28;100.00
4149;BME280;2088;51.032;7.082;2022-12-07T10:14:53;48828.28;;;-142.28;100.00
4149;BME280;2088;51.032;7.082;2022-12-07T10:17:35;48801.19;;;-142.28;100.00
4149;BME280;2088;51.032;7.082;2022-12-07T10:20:16;48793.44;;;-142.28;100.00
4149;BME280;2088;51.032;7.082;2022-12-07T10:22:57;48814.72;;;-142.28;100.00
4149;BME280;2088;51.032;7.082;2022-12-07T10:25:28;48818.59;;;-142.28;100.00
4149;BME280;2088;51.032;7.082;2022-12-07T10:27:58;48816.66;;;-142.28;100.00
4149;BME280;2088;51.032;7.082;2022-12-07T10:30:26;48789.56;;;-142.28;100.00
4149;BME280;2088;51.032;7.082;2022-12-07T10:32:54;48795.38;;;-142.28;100.00
4149;BME280;2088;51.032;7.082;2022-12-07T10:35:24;48791.50;;;-142.28;100.00
4149;BME280;2088;51.032;7.082;2022-12-07T10:37:52;48776.00;;;-142.28;100.00
4149;BME280;2088;51.032;7.082;2022-12-07T10:40:26;48799.25;;;-142.28;100.00
4149;BME280;2088;51.032;7.082;2022-12-07T10:43:01;48776.00;;;-142.28;100.00
4149;BME280;2088;51.032;7.082;2022-12-07T10:45:27;48801.19;;;-142.28;100.00
4149;BME280;2088;51.032;7.082;2022-12-07T10:48:00;48797.31;;;-142.28;100.00
4149;BME280;2088;51.032;7.082;2022-12-07T10:50:43;48814.72;;;-142.28;100.00
4149;BME280;2088;51.032;7.082;2022-12-07T10:56:34;48799.25;;;-142.28;100.00
4149;BME280;2088;51.032;7.082;2022-12-07T11:02:23;48776.00;;;-142.28;99.45
4149;BME280;2088;51.032;7.082;2022-12-07T11:05:01;48781.81;;;-142.28;98.53
4149;BME280;2088;51.032;7.082;2022-12-07T11:07:38;48754.72;;;-142.28;98.11
4149;BME280;2088;51.032;7.082;2022-12-07T11:10:13;48745.03;;;-142.28;99.18
4149;BME280;2088;51.032;7.082;2022-12-07T11:12:52;48737.31;;;-142.28;98.00
4149;BME280;2088;51.032;7.082;2022-12-07T11:15:29;48748.91;;;-142.28;98.15
4149;BME280;2088;51.032;7.082;2022-12-07T11:18:03;48764.41;;;-142.28;99.87
4149;BME280;2088;51.032;7.082;2022-12-07T11:20:41;48756.66;;;-142.28;99.03
4149;BME280;2088;51.032;7.082;2022-12-07T11:23:18;48772.16;;;-142.28;99.43
4149;BME280;2088;51.032;7.082;2022-12-07T11:25:53;48741.19;;;-142.28;99.09
4149;BME280;2088;51.032;7.082;2022-12-07T11:28:32;48760.53;;;-142.28;97.78
4149;BME280;2088;51.032;7.082;2022-12-07T11:31:07;48714.06;;;-142.28;97.28
4149;BME280;2088;51.032;7.082;2022-12-07T11:33:41;48762.47;;;-142.28;99.74
4149;BME280;2088;51.032;7.082;2022-12-07T11:36:23;48743.09;;;-142.28;99.99
4149;BME280;2088;51.032;7.082;2022-12-07T11:38:55;48741.19;;;-142.28;100.00
4149;BME280;2088;51.032;7.082;2022-12-07T11:41:24;48752.78;;;-142.28;100.00
4149;BME280;2088;51.032;7.082;2022-12-07T11:44:00;48779.88;;;-142.28;100.00
4149;BME280;2088;51.032;7.082;2022-12-07T11:46:41;48776.00;;;-142.28;100.00
4149;BME280;2088;51.032;7.082;2022-12-07T11:49:15;48781.81;;;-142.28;100.00
4149;BME280;2088;51.032;7.082;2022-12-07T11:51:49;48787.63;;;-142.28;100.00
4149;BME280;2088;51.032;7.082;2022-12-07T11:54:21;48774.06;;;-142.28;100.00
4149;BME280;2088;51.032;7.082;2022-12-07T11:56:50;48806.97;;;-142.28;100.00
4149;BME280;2088;51.032;7.082;2022-12-07T11:59:22;48752.78;;;-142.28;100.00
4149;BME280;2088;51.032;7.082;2022-12-07T12:01:53;48777.94;;;-142.28;100.00
4149;BME280;2088;51.032;7.082;2022-12-07T12:04:29;48733.44;;;-142.28;98.60
4149;BME280;2088;51.032;7.082;2022-12-07T12:06:58;48743.09;;;-142.28;97.43
4149;BME280;2088;51.032;7.082;2022-12-07T12:09:30;48706.34;;;-142.28;97.26
4149;BME280;2088;51.032;7.082;2022-12-07T12:12:18;48727.63;;;-142.28;96.83
4149;BME280;2088;51.032;7.082;2022-12-07T12:14:58;48681.16;;;-142.28;97.34
4149;BME280;2088;51.032;7.082;2022-12-07T12:17:44;48733.44;;;-142.28;97.12
4149;BME280;2088;51.032;7.082;2022-12-07T12:20:21;48690.84;;;-142.28;97.39
4149;BME280;2088;51.032;7.082;2022-12-07T12:22:53;48712.13;;;-142.28;97.00
4149;BME280;2088;51.032;7.082;2022-12-07T12:25:24;48686.97;;;-142.28;96.29
4149;BME280;2088;51.032;7.082;2022-12-07T12:27:55;48716.00;;;-142.28;96.97
4149;BME280;2088;51.032;7.082;2022-12-07T12:30:30;48696.66;;;-142.28;96.74
4149;BME280;2088;51.032;7.082;2022-12-07T12:33:03;48677.31;;;-142.28;95.84
4149;BME280;2088;51.032;7.082;2022-12-07T12:35:32;48675.38;;;-142.28;96.08
4149;BME280;2088;51.032;7.082;2022-12-07T12:38:27;48673.44;;;-142.28;95.76
4149;BME280;2088;51.032;7.082;2022-12-07T12:40:54;48694.72;;;-142.28;95.93
4149;BME280;2088;51.032;7.082;2022-12-07T12:43:50;48700.53;;;-142.28;95.97
4149;BME280;2088;51.032;7.082;2022-12-07T12:46:51;48681.16;;;-142.28;96.05
4149;BME280;2088;51.032;7.082;2022-12-07T12:49:42;48706.34;;;-142.28;96.04
4149;BME280;2088;51.032;7.082;2022-12-07T12:58:43;48617.31;;;-142.28;92.93
4149;BME280;2088;51.032;7.082;2022-12-07T13:01:44;48636.66;;;-142.28;93.84
4149;BME280;2088;51.032;7.082;2022-12-07T13:04:39;48652.13;;;-142.28;93.74
4149;BME280;2088;51.032;7.082;2022-12-07T13:07:12;48648.28;;;-142.28;93.44
4149;BME280;2088;51.032;7.082;2022-12-07T13:09:43;48603.75;;;-142.28;92.66
4149;BME280;2088;51.032;7.082;2022-12-07T13:12:14;48603.75;;;-142.28;92.07
4149;BME280;2088;51.032;7.082;2022-12-07T13:14:56;48563.09;;;-142.28;89.88
4149;BME280;2088;51.032;7.082;2022-12-07T13:17:55;48572.78;;;-142.28;91.60
4149;BME280;2088;51.032;7.082;2022-12-07T13:20:48;48580.53;;;-142.28;90.74
4149;BME280;2088;51.032;7.082;2022-12-07T13:23:20;48543.75;;;-142.28;89.52
4149;BME280;2088;51.032;7.082;2022-12-07T13:25:54;48545.69;;;-142.28;89.43